sensor_id;sensor_type;location;lat;lon;timestamp;P1;durP1;ratioP1;P2;durP2;ratioP2
21564;SDS011;10943;48.738;9.320;2022-08-01T00:01:37;4.82;;;2.10;;
21564;SDS011;10943;48.738;9.320;2022-08-01T00:04:08;4.30;;;2.10;;
21564;SDS011;10943;48.738;9.320;2022-08-01T00:06:36;4.07;;;2.20;;
21564;SDS011;10943;48.738;9.320;2022-08-01T00:09:04;5.40;;;2.10;;
21564;SDS011;10943;48.738;9.320;2022-08-01T00:11:31;5.15;;;2.17;;
21564;SDS011;10943;48.738;9.320;2022-08-01T00:13:59;4.63;;;2.20;;
21564;SDS011;10943;48.738;9.320;2022-08-01T00:16:28;4.60;;;2.20;;
21564;SDS011;10943;48.738;9.320;2022-08-01T00:18:56;4.95;;;2.28;;
21564;SDS011;10943;48.738;9.320;2022-08-01T00:21:24;4.80;;;1.80;;
21564;SDS011;10943;48.738;9.320;2022-08-01T00:23:52;4.63;;;2.17;;
21564;SDS011;10943;48.738;9.320;2022-08-01T00:26:20;4.65;;;1.90;;
21564;SDS011;10943;48.738;9.320;2022-08-01T00:28:48;3.70;;;1.83;;
21564;SDS011;10943;48.738;9.320;2022-08-01T00:31:19;3.38;;;1.75;;
21564;SDS011;10943;48.738;9.320;2022-08-01T00:33:48;4.28;;;2.30;;
21564;SDS011;10943;48.738;9.320;2022-08-01T00:36:18;4.78;;;2.03;;
21564;SDS011;10943;48.738;9.320;2022-08-01T00:38:47;4.10;;;2.20;;
21564;SDS011;10943;48.738;9.320;2022-08-01T00:41:15;4.38;;;1.95;;
21564;SDS011;10943;48.738;9.320;2022-08-01T00:43:48;5.72;;;2.20;;
21564;SDS011;10943;48.738;9.320;2022-08-01T00:46:15;5.05;;;2.10;;
21564;SDS011;10943;48.738;9.320;2022-08-01T00:48:43;4.68;;;2.42;;
21564;SDS011;10943;48.738;9.320;2022-08-01T00:51:11;4.22;;;1.90;;
21564;SDS011;10943;48.738;9.320;2022-08-01T00:53:39;4.05;;;2.10;;
21564;SDS011;10943;48.738;9.320;2022-08-01T00:56:21;3.78;;;2.10;;
21564;SDS011;10943;48.738;9.320;2022-08-01T00:58:55;5.28;;;2.30;;
21564;SDS011;10943;48.738;9.320;2022-08-01T01:01:25;4.50;;;2.17;;
21564;SDS011;10943;48.738;9.320;2022-08-01T01:04:05;4.78;;;2.35;;
21564;SDS011;10943;48.738;9.320;2022-08-01T01:09:45;4.47;;;2.00;;
21564;SDS011;10943;48.738;9.320;2022-08-01T01:15:40;3.55;;;2.00;;
21564;SDS011;10943;48.738;9.320;2022-08-01T01:18:47;3.92;;;2.00;;
21564;SDS011;10943;48.738;9.320;2022-08-01T01:21:32;3.70;;;2.08;;
21564;SDS011;10943;48.738;9.320;2022-08-01T01:24:58;4.20;;;2.30;;
21564;SDS011;10943;48.738;9.320;2022-08-01T01:31:10;4.03;;;2.05;;
21564;SDS011;10943;48.738;9.320;2022-08-01T01:33:41;3.83;;;1.88;;
21564;SDS011;10943;48.738;9.320;2022-08-01T01:36:13;5.43;;;2.13;;
21564;SDS011;10943;48.738;9.320;2022-08-01T01:38:45;6.05;;;2.58;;
21564;SDS011;10943;48.738;9.320;2022-08-01T01:41:22;4.30;;;1.98;;
21564;SDS011;10943;48.738;9.320;2022-08-01T01:43:51;5.55;;;2.45;;
21564;SDS011;10943;48.738;9.320;2022-08-01T01:46:23;5.20;;;2.25;;
21564;SDS011;10943;48.738;9.320;2022-08-01T01:48:53;5.72;;;2.40;;
21564;SDS011;10943;48.738;9.320;2022-08-01T01:51:25;5.15;;;2.30;;
21564;SDS011;10943;48.738;9.320;2022-08-01T01:53:56;4.10;;;2.30;;
21564;SDS011;10943;48.738;9.320;2022-08-01T01:56:26;3.97;;;2.28;;
21564;SDS011;10943;48.738;9.320;2022-08-01T01:58:59;4.38;;;2.30;;
21564;SDS011;10943;48.738;9.320;2022-08-01T02:01:31;4.22;;;2.30;;
21564;SDS011;10943;48.738;9.320;2022-08-01T02:04:21;3.63;;;2.20;;
21564;SDS011;10943;48.738;9.320;2022-08-01T02:06:52;3.42;;;1.83;;
21564;SDS011;10943;48.738;9.320;2022-08-01T02:09:24;4.15;;;2.15;;
21564;SDS011;10943;48.738;9.320;2022-08-01T02:11:54;5.97;;;2.55;;
21564;SDS011;10943;48.738;9.320;2022-08-01T02:14:35;4.32;;;2.17;;
21564;SDS011;10943;48.738;9.320;2022-08-01T02:17:12;4.93;;;2.42;;
21564;SDS011;10943;48.738;9.320;2022-08-01T02:19:45;4.40;;;2.13;;
21564;SDS011;10943;48.738;9.320;2022-08-01T02:22:15;4.37;;;2.37;;
21564;SDS011;10943;48.738;9.320;2022-08-01T02:24:59;4.50;;;2.70;;
21564;SDS011;10943;48.738;9.320;2022-08-01T02:27:40;3.20;;;1.85;;
21564;SDS011;10943;48.738;9.320;2022-08-01T02:31:35;5.45;;;2.20;;
21564;SDS011;10943;48.738;9.320;2022-08-01T02:34:11;5.82;;;2.50;;
21564;SDS011;10943;48.738;9.320;2022-08-01T02:36:45;5.28;;;2.08;;
21564;SDS011;10943;48.738;9.320;2022-08-01T02:39:20;6.47;;;2.17;;
21564;SDS011;10943;48.738;9.320;2022-08-01T02:41:57;6.03;;;3.00;;
21564;SDS011;10943;48.738;9.320;2022-08-01T02:44:33;4.40;;;2.42;;
21564;SDS011;10943;48.738;9.320;2022-08-01T02:47:06;5.85;;;2.60;;
21564;SDS011;10943;48.738;9.320;2022-08-01T02:49:35;7.10;;;2.45;;
21564;SDS011;10943;48.738;9.320;2022-08-01T02:52:19;6.20;;;2.40;;
21564;SDS011;10943;48.738;9.320;2022-08-01T02:54:51;4.75;;;2.53;;
21564;SDS011;10943;48.738;9.320;2022-08-01T02:57:22;7.55;;;2.78;;
21564;SDS011;10943;48.738;9.320;2022-08-01T03:00:15;5.32;;;2.80;;
21564;SDS011;10943;48.738;9.320;2022-08-01T03:02:45;5.07;;;2.80;;
21564;SDS011;10943;48.738;9.320;2022-08-01T03:05:16;7.65;;;2.42;;
21564;SDS011;10943;48.738;9.320;2022-08-01T03:07:49;4.45;;;2.40;;
21564;SDS011;10943;48.738;9.320;2022-08-01T03:10:20;3.95;;;2.45;;
21564;SDS011;10943;48.738;9.320;2022-08-01T03:12:51;5.38;;;2.53;;
21564;SDS011;10943;48.738;9.320;2022-08-01T03:15:20;4.50;;;2.67;;
21564;SDS011;10943;48.738;9.320;2022-08-01T03:17:53;6.63;;;2.80;;
21564;SDS011;10943;48.738;9.320;2022-08-01T03:20:22;5.28;;;2.88;;
21564;SDS011;10943;48.738;9.320;2022-08-01T03:22:52;4.80;;;2.70;;
21564;SDS011;10943;48.738;9.320;2022-08-01T03:25:21;5.50;;;2.58;;
21564;SDS011;10943;48.738;9.320;2022-08-01T03:27:56;4.55;;;2.45;;
21564;SDS011;10943;48.738;9.320;2022-08-01T03:30:30;4.53;;;2.78;;
21564;SDS011;10943;48.738;9.320;2022-08-01T03:33:00;4.40;;;2.58;;
21564;SDS011;10943;48.738;9.320;2022-08-01T03:35:36;6.18;;;3.00;;
21564;SDS011;10943;48.738;9.320;2022-08-01T03:38:13;4.20;;;2.60;;
21564;SDS011;10943;48.738;9.320;2022-08-01T03:40:58;5.15;;;3.00;;
21564;SDS011;10943;48.738;9.320;2022-08-01T03:43:46;6.13;;;3.10;;
21564;SDS011;10943;48.738;9.320;2022-08-01T03:46:29;4.82;;;2.63;;
21564;SDS011;10943;48.738;9.320;2022-08-01T03:49:23;4.68;;;2.97;;
21564;SDS011;10943;48.738;9.320;2022-08-01T03:51:57;5.15;;;2.90;;
21564;SDS011;10943;48.738;9.320;2022-08-01T03:54:30;6.05;;;2.92;;
21564;SDS011;10943;48.738;9.320;2022-08-01T03:57:02;5.50;;;3.00;;
21564;SDS011;10943;48.738;9.320;2022-08-01T03:59:32;6.25;;;2.80;;
21564;SDS011;10943;48.738;9.320;2022-08-01T04:02:02;5.55;;;3.03;;
21564;SDS011;10943;48.738;9.320;2022-08-01T04:04:33;5.57;;;2.88;;
21564;SDS011;10943;48.738;9.320;2022-08-01T04:07:01;8.38;;;3.08;;
21564;SDS011;10943;48.738;9.320;2022-08-01T04:09:32;5.88;;;2.90;;
21564;SDS011;10943;48.738;9.320;2022-08-01T04:12:00;5.55;;;3.10;;
21564;SDS011;10943;48.738;9.320;2022-08-01T04:14:40;4.72;;;2.90;;
21564;SDS011;10943;48.738;9.320;2022-08-01T04:17:07;4.60;;;2.95;;
21564;SDS011;10943;48.738;9.320;2022-08-01T04:19:37;6.15;;;3.33;;
21564;SDS011;10943;48.738;9.320;2022-08-01T04:22:07;6.20;;;3.30;;
21564;SDS011;10943;48.738;9.320;2022-08-01T04:24:41;6.00;;;3.15;;
21564;SDS011;10943;48.738;9.320;2022-08-01T04:27:27;7.28;;;3.40;;
21564;SDS011;10943;48.738;9.320;2022-08-01T04:30:22;8.50;;;3.42;;
21564;SDS011;10943;48.738;9.320;2022-08-01T04:32:59;7.25;;;3.00;;
21564;SDS011;10943;48.738;9.320;2022-08-01T04:35:31;5.13;;;2.80;;
21564;SDS011;10943;48.738;9.320;2022-08-01T04:38:22;7.25;;;3.08;;
21564;SDS011;10943;48.738;9.320;2022-08-01T04:40:55;6.68;;;3.10;;
21564;SDS011;10943;48.738;9.320;2022-08-01T04:43:34;5.72;;;3.10;;
21564;SDS011;10943;48.738;9.320;2022-08-01T04:46:02;4.72;;;2.67;;
21564;SDS011;10943;48.738;9.320;2022-08-01T04:48:34;4.50;;;2.70;;
21564;SDS011;10943;48.738;9.320;2022-08-01T04:51:13;4.93;;;2.70;;
21564;SDS011;10943;48.738;9.320;2022-08-01T04:53:48;5.40;;;2.55;;
21564;SDS011;10943;48.738;9.320;2022-08-01T04:56:18;5.55;;;2.42;;
21564;SDS011;10943;48.738;9.320;2022-08-01T04:58:47;5.05;;;2.58;;
21564;SDS011;10943;48.738;9.320;2022-08-01T05:01:41;5.40;;;2.25;;
21564;SDS011;10943;48.738;9.320;2022-08-01T05:04:08;5.07;;;2.28;;
21564;SDS011;10943;48.738;9.320;2022-08-01T05:06:36;4.55;;;2.30;;
21564;SDS011;10943;48.738;9.320;2022-08-01T05:09:03;6.30;;;2.40;;
21564;SDS011;10943;48.738;9.320;2022-08-01T05:11:30;3.75;;;2.05;;
21564;SDS011;10943;48.738;9.320;2022-08-01T05:13:58;5.65;;;2.42;;
21564;SDS011;10943;48.738;9.320;2022-08-01T05:16:28;6.05;;;2.40;;
21564;SDS011;10943;48.738;9.320;2022-08-01T05:18:55;5.50;;;2.47;;
21564;SDS011;10943;48.738;9.320;2022-08-01T05:21:25;5.50;;;2.58;;
21564;SDS011;10943;48.738;9.320;2022-08-01T05:23:52;3.90;;;2.30;;
21564;SDS011;10943;48.738;9.320;2022-08-01T05:26:20;4.75;;;2.72;;
21564;SDS011;10943;48.738;9.320;2022-08-01T05:28:47;6.03;;;2.53;;
21564;SDS011;10943;48.738;9.320;2022-08-01T05:31:15;4.95;;;2.42;;
21564;SDS011;10943;48.738;9.320;2022-08-01T05:33:42;6.22;;;2.70;;
21564;SDS011;10943;48.738;9.320;2022-08-01T05:36:10;4.32;;;2.28;;
21564;SDS011;10943;48.738;9.320;2022-08-01T05:38:40;4.40;;;2.33;;
21564;SDS011;10943;48.738;9.320;2022-08-01T05:41:07;5.97;;;2.55;;
21564;SDS011;10943;48.738;9.320;2022-08-01T05:43:38;4.45;;;2.22;;
21564;SDS011;10943;48.738;9.320;2022-08-01T05:46:05;5.60;;;2.00;;
21564;SDS011;10943;48.738;9.320;2022-08-01T05:48:32;4.38;;;2.08;;
21564;SDS011;10943;48.738;9.320;2022-08-01T05:51:04;5.47;;;2.47;;
21564;SDS011;10943;48.738;9.320;2022-08-01T05:53:32;7.00;;;2.50;;
21564;SDS011;10943;48.738;9.320;2022-08-01T05:56:05;5.00;;;2.40;;
21564;SDS011;10943;48.738;9.320;2022-08-01T05:58:33;7.13;;;2.63;;
21564;SDS011;10943;48.738;9.320;2022-08-01T06:01:00;5.47;;;2.53;;
21564;SDS011;10943;48.738;9.320;2022-08-01T06:03:29;5.03;;;2.20;;
21564;SDS011;10943;48.738;9.320;2022-08-01T06:05:57;4.25;;;2.00;;
21564;SDS011;10943;48.738;9.320;2022-08-01T06:08:27;5.35;;;1.95;;
21564;SDS011;10943;48.738;9.320;2022-08-01T06:10:55;6.38;;;2.30;;
21564;SDS011;10943;48.738;9.320;2022-08-01T06:13:23;4.72;;;1.98;;
21564;SDS011;10943;48.738;9.320;2022-08-01T06:15:53;5.00;;;1.90;;
21564;SDS011;10943;48.738;9.320;2022-08-01T06:18:20;6.32;;;2.20;;
21564;SDS011;10943;48.738;9.320;2022-08-01T06:20:48;6.47;;;2.05;;
21564;SDS011;10943;48.738;9.320;2022-08-01T06:23:16;6.07;;;2.00;;
21564;SDS011;10943;48.738;9.320;2022-08-01T06:25:57;5.50;;;2.10;;
21564;SDS011;10943;48.738;9.320;2022-08-01T06:28:24;6.28;;;1.98;;
21564;SDS011;10943;48.738;9.320;2022-08-01T06:30:52;4.93;;;2.05;;
21564;SDS011;10943;48.738;9.320;2022-08-01T06:33:19;5.30;;;2.20;;
21564;SDS011;10943;48.738;9.320;2022-08-01T06:35:47;3.70;;;1.77;;
21564;SDS011;10943;48.738;9.320;2022-08-01T06:38:14;6.32;;;2.15;;
21564;SDS011;10943;48.738;9.320;2022-08-01T06:40:42;7.13;;;2.00;;
21564;SDS011;10943;48.738;9.320;2022-08-01T06:43:09;6.15;;;2.15;;
21564;SDS011;10943;48.738;9.320;2022-08-01T06:45:40;4.95;;;1.90;;
21564;SDS011;10943;48.738;9.320;2022-08-01T06:48:08;5.00;;;1.88;;
21564;SDS011;10943;48.738;9.320;2022-08-01T06:51:14;4.22;;;1.90;;
21564;SDS011;10943;48.738;9.320;2022-08-01T06:53:53;5.18;;;1.90;;
21564;SDS011;10943;48.738;9.320;2022-08-01T06:56:24;8.48;;;2.13;;
21564;SDS011;10943;48.738;9.320;2022-08-01T06:58:56;4.75;;;1.95;;
21564;SDS011;10943;48.738;9.320;2022-08-01T07:01:33;4.40;;;2.17;;
21564;SDS011;10943;48.738;9.320;2022-08-01T07:04:07;4.78;;;1.90;;
21564;SDS011;10943;48.738;9.320;2022-08-01T07:06:39;5.72;;;1.95;;
21564;SDS011;10943;48.738;9.320;2022-08-01T07:09:11;6.25;;;1.95;;
21564;SDS011;10943;48.738;9.320;2022-08-01T07:11:43;3.70;;;1.70;;
21564;SDS011;10943;48.738;9.320;2022-08-01T07:14:14;5.95;;;1.80;;
21564;SDS011;10943;48.738;9.320;2022-08-01T07:16:54;4.05;;;1.90;;
21564;SDS011;10943;48.738;9.320;2022-08-01T07:19:32;3.95;;;1.90;;
21564;SDS011;10943;48.738;9.320;2022-08-01T07:22:10;3.85;;;1.70;;
21564;SDS011;10943;48.738;9.320;2022-08-01T07:24:57;6.60;;;1.90;;
21564;SDS011;10943;48.738;9.320;2022-08-01T07:27:29;3.25;;;1.65;;
21564;SDS011;10943;48.738;9.320;2022-08-01T07:30:05;4.25;;;1.83;;
21564;SDS011;10943;48.738;9.320;2022-08-01T07:32:58;5.43;;;1.70;;
21564;SDS011;10943;48.738;9.320;2022-08-01T07:35:28;3.75;;;1.55;;
21564;SDS011;10943;48.738;9.320;2022-08-01T07:38:00;4.85;;;1.50;;
21564;SDS011;10943;48.738;9.320;2022-08-01T07:40:28;5.20;;;1.20;;
21564;SDS011;10943;48.738;9.320;2022-08-01T07:43:07;4.50;;;1.55;;
21564;SDS011;10943;48.738;9.320;2022-08-01T07:45:39;3.17;;;1.30;;
21564;SDS011;10943;48.738;9.320;2022-08-01T07:48:12;3.55;;;1.58;;
21564;SDS011;10943;48.738;9.320;2022-08-01T07:50:46;3.42;;;1.40;;
21564;SDS011;10943;48.738;9.320;2022-08-01T07:53:14;3.13;;;1.27;;
21564;SDS011;10943;48.738;9.320;2022-08-01T07:55:46;3.70;;;1.20;;
21564;SDS011;10943;48.738;9.320;2022-08-01T07:58:20;2.85;;;1.27;;
21564;SDS011;10943;48.738;9.320;2022-08-01T08:00:48;2.55;;;1.30;;
21564;SDS011;10943;48.738;9.320;2022-08-01T08:03:16;3.42;;;1.50;;
21564;SDS011;10943;48.738;9.320;2022-08-01T08:05:44;4.32;;;1.35;;
21564;SDS011;10943;48.738;9.320;2022-08-01T08:08:28;3.60;;;1.25;;
21564;SDS011;10943;48.738;9.320;2022-08-01T08:10:56;3.95;;;1.33;;
21564;SDS011;10943;48.738;9.320;2022-08-01T08:13:26;3.33;;;1.20;;
21564;SDS011;10943;48.738;9.320;2022-08-01T08:15:54;3.30;;;1.20;;
21564;SDS011;10943;48.738;9.320;2022-08-01T08:18:23;3.08;;;1.30;;
21564;SDS011;10943;48.738;9.320;2022-08-01T08:20:52;4.15;;;1.23;;
21564;SDS011;10943;48.738;9.320;2022-08-01T09:09:34;3.95;;;1.60;;
21564;SDS011;10943;48.738;9.320;2022-08-01T09:12:16;3.75;;;1.70;;
21564;SDS011;10943;48.738;9.320;2022-08-01T09:14:52;3.85;;;1.80;;
21564;SDS011;10943;48.738;9.320;2022-08-01T09:17:39;4.50;;;1.90;;
21564;SDS011;10943;48.738;9.320;2022-08-01T09:20:07;3.70;;;1.83;;
21564;SDS011;10943;48.738;9.320;2022-08-01T09:22:49;3.90;;;2.20;;
21564;SDS011;10943;48.738;9.320;2022-08-01T09:25:16;4.50;;;2.05;;
21564;SDS011;10943;48.738;9.320;2022-08-01T09:28:01;4.57;;;2.17;;
21564;SDS011;10943;48.738;9.320;2022-08-01T09:34:11;4.22;;;2.20;;
21564;SDS011;10943;48.738;9.320;2022-08-01T09:37:10;5.07;;;2.20;;
21564;SDS011;10943;48.738;9.320;2022-08-01T09:43:59;4.53;;;2.75;;
21564;SDS011;10943;48.738;9.320;2022-08-01T09:47:09;6.55;;;3.05;;
21564;SDS011;10943;48.738;9.320;2022-08-01T09:49:59;5.93;;;2.70;;
21564;SDS011;10943;48.738;9.320;2022-08-01T09:52:48;5.28;;;2.92;;
21564;SDS011;10943;48.738;9.320;2022-08-01T09:55:24;5.28;;;2.80;;
21564;SDS011;10943;48.738;9.320;2022-08-01T09:58:01;5.13;;;2.53;;
21564;SDS011;10943;48.738;9.320;2022-08-01T10:01:07;5.05;;;2.67;;
21564;SDS011;10943;48.738;9.320;2022-08-01T10:04:14;6.93;;;2.90;;
21564;SDS011;10943;48.738;9.320;2022-08-01T10:06:53;6.47;;;3.28;;
21564;SDS011;10943;48.738;9.320;2022-08-01T10:09:43;5.60;;;3.15;;
21564;SDS011;10943;48.738;9.320;2022-08-01T10:12:51;6.72;;;3.10;;
21564;SDS011;10943;48.738;9.320;2022-08-01T10:15:26;4.65;;;3.28;;
21564;SDS011;10943;48.738;9.320;2022-08-01T10:18:07;7.50;;;3.30;;
21564;SDS011;10943;48.738;9.320;2022-08-01T10:21:03;6.53;;;3.30;;
21564;SDS011;10943;48.738;9.320;2022-08-01T10:24:22;6.25;;;3.40;;
21564;SDS011;10943;48.738;9.320;2022-08-01T10:27:11;4.53;;;2.90;;
21564;SDS011;10943;48.738;9.320;2022-08-01T10:30:07;5.97;;;3.40;;
21564;SDS011;10943;48.738;9.320;2022-08-01T10:33:03;7.22;;;3.67;;
21564;SDS011;10943;48.738;9.320;2022-08-01T10:36:02;4.47;;;2.95;;
21564;SDS011;10943;48.738;9.320;2022-08-01T10:38:35;7.68;;;2.72;;
21564;SDS011;10943;48.738;9.320;2022-08-01T10:41:06;4.82;;;2.90;;
21564;SDS011;10943;48.738;9.320;2022-08-01T10:43:35;4.82;;;2.97;;
21564;SDS011;10943;48.738;9.320;2022-08-01T10:56:22;6.40;;;2.78;;
21564;SDS011;10943;48.738;9.320;2022-08-01T10:59:30;5.18;;;3.15;;
21564;SDS011;10943;48.738;9.320;2022-08-01T11:02:26;5.35;;;2.90;;
21564;SDS011;10943;48.738;9.320;2022-08-01T11:05:17;5.90;;;3.00;;
21564;SDS011;10943;48.738;9.320;2022-08-01T11:07:53;3.95;;;2.42;;
21564;SDS011;10943;48.738;9.320;2022-08-01T11:10:28;4.43;;;2.50;;
21564;SDS011;10943;48.738;9.320;2022-08-01T11:13:14;5.25;;;2.40;;
21564;SDS011;10943;48.738;9.320;2022-08-01T11:16:34;4.93;;;2.40;;
21564;SDS011;10943;48.738;9.320;2022-08-01T11:19:06;4.07;;;2.30;;
21564;SDS011;10943;48.738;9.320;2022-08-01T11:27:29;4.05;;;2.25;;
21564;SDS011;10943;48.738;9.320;2022-08-01T11:32:49;5.55;;;2.60;;
21564;SDS011;10943;48.738;9.320;2022-08-01T11:35:37;3.92;;;2.20;;
21564;SDS011;10943;48.738;9.320;2022-08-01T11:38:42;3.67;;;1.92;;
21564;SDS011;10943;48.738;9.320;2022-08-01T11:41:46;4.25;;;2.00;;
21564;SDS011;10943;48.738;9.320;2022-08-01T11:44:47;5.75;;;2.00;;
21564;SDS011;10943;48.738;9.320;2022-08-01T11:50:46;4.32;;;1.88;;
21564;SDS011;10943;48.738;9.320;2022-08-01T11:53:29;3.22;;;1.90;;
21564;SDS011;10943;48.738;9.320;2022-08-01T11:56:31;5.70;;;1.90;;
21564;SDS011;10943;48.738;9.320;2022-08-01T11:59:20;5.13;;;1.90;;
21564;SDS011;10943;48.738;9.320;2022-08-01T12:02:19;5.53;;;1.80;;
21564;SDS011;10943;48.738;9.320;2022-08-01T12:05:14;4.30;;;2.08;;
21564;SDS011;10943;48.738;9.320;2022-08-01T12:07:52;3.85;;;1.70;;
21564;SDS011;10943;48.738;9.320;2022-08-01T12:10:40;4.88;;;2.00;;
21564;SDS011;10943;48.738;9.320;2022-08-01T12:13:29;5.18;;;2.00;;
21564;SDS011;10943;48.738;9.320;2022-08-01T12:16:48;3.75;;;1.70;;
21564;SDS011;10943;48.738;9.320;2022-08-01T12:19:27;3.50;;;2.00;;
21564;SDS011;10943;48.738;9.320;2022-08-01T12:22:21;4.53;;;2.00;;
21564;SDS011;10943;48.738;9.320;2022-08-01T12:25:30;5.38;;;1.67;;
21564;SDS011;10943;48.738;9.320;2022-08-01T12:43:16;3.60;;;1.52;;
21564;SDS011;10943;48.738;9.320;2022-08-01T12:51:41;3.90;;;1.80;;
21564;SDS011;10943;48.738;9.320;2022-08-01T12:54:22;3.15;;;1.52;;
21564;SDS011;10943;48.738;9.320;2022-08-01T12:56:52;4.45;;;1.75;;
21564;SDS011;10943;48.738;9.320;2022-08-01T12:59:23;5.20;;;1.90;;
21564;SDS011;10943;48.738;9.320;2022-08-01T13:01:56;3.60;;;1.90;;
21564;SDS011;10943;48.738;9.320;2022-08-01T13:04:48;4.20;;;2.20;;
21564;SDS011;10943;48.738;9.320;2022-08-01T13:07:18;3.42;;;1.80;;
21564;SDS011;10943;48.738;9.320;2022-08-01T13:09:51;4.07;;;1.73;;
21564;SDS011;10943;48.738;9.320;2022-08-01T13:12:21;4.50;;;1.80;;
21564;SDS011;10943;48.738;9.320;2022-08-01T13:14:52;3.88;;;1.60;;
21564;SDS011;10943;48.738;9.320;2022-08-01T13:17:32;6.53;;;1.65;;
21564;SDS011;10943;48.738;9.320;2022-08-01T13:20:05;3.92;;;1.52;;
21564;SDS011;10943;48.738;9.320;2022-08-01T13:22:34;5.28;;;1.40;;
21564;SDS011;10943;48.738;9.320;2022-08-01T13:25:15;3.70;;;1.63;;
21564;SDS011;10943;48.738;9.320;2022-08-01T13:27:48;5.63;;;1.73;;
21564;SDS011;10943;48.738;9.320;2022-08-01T13:30:19;4.43;;;1.50;;
21564;SDS011;10943;48.738;9.320;2022-08-01T13:32:59;5.57;;;1.90;;
21564;SDS011;10943;48.738;9.320;2022-08-01T13:35:27;3.92;;;2.08;;
21564;SDS011;10943;48.738;9.320;2022-08-01T13:37:55;4.22;;;1.70;;
21564;SDS011;10943;48.738;9.320;2022-08-01T13:40:26;3.90;;;1.90;;
21564;SDS011;10943;48.738;9.320;2022-08-01T13:42:54;3.00;;;1.45;;
21564;SDS011;10943;48.738;9.320;2022-08-01T13:45:23;3.47;;;1.70;;
21564;SDS011;10943;48.738;9.320;2022-08-01T13:47:52;5.05;;;1.60;;
21564;SDS011;10943;48.738;9.320;2022-08-01T13:50:39;3.03;;;1.45;;
21564;SDS011;10943;48.738;9.320;2022-08-01T13:53:09;3.28;;;1.70;;
21564;SDS011;10943;48.738;9.320;2022-08-01T13:55:39;4.57;;;1.58;;
21564;SDS011;10943;48.738;9.320;2022-08-01T13:58:13;5.50;;;1.52;;
21564;SDS011;10943;48.738;9.320;2022-08-01T14:00:40;4.25;;;1.60;;
21564;SDS011;10943;48.738;9.320;2022-08-01T14:03:12;3.47;;;1.63;;
21564;SDS011;10943;48.738;9.320;2022-08-01T14:05:40;3.28;;;1.45;;
21564;SDS011;10943;48.738;9.320;2022-08-01T14:08:09;5.07;;;1.77;;
21564;SDS011;10943;48.738;9.320;2022-08-01T14:10:40;3.70;;;1.73;;
21564;SDS011;10943;48.738;9.320;2022-08-01T14:13:09;3.10;;;1.50;;
21564;SDS011;10943;48.738;9.320;2022-08-01T14:15:38;4.10;;;1.50;;
21564;SDS011;10943;48.738;9.320;2022-08-01T14:18:09;3.30;;;1.60;;
21564;SDS011;10943;48.738;9.320;2022-08-01T14:20:37;4.57;;;1.73;;
21564;SDS011;10943;48.738;9.320;2022-08-01T14:23:09;3.72;;;1.80;;
21564;SDS011;10943;48.738;9.320;2022-08-01T14:25:37;4.32;;;1.70;;
21564;SDS011;10943;48.738;9.320;2022-08-01T14:28:29;5.47;;;1.90;;
21564;SDS011;10943;48.738;9.320;2022-08-01T14:30:57;3.53;;;1.60;;
21564;SDS011;10943;48.738;9.320;2022-08-01T14:33:28;3.15;;;1.63;;
21564;SDS011;10943;48.738;9.320;2022-08-01T14:35:59;3.75;;;1.75;;
21564;SDS011;10943;48.738;9.320;2022-08-01T14:38:51;4.63;;;2.42;;
21564;SDS011;10943;48.738;9.320;2022-08-01T14:41:22;4.45;;;1.95;;
21564;SDS011;10943;48.738;9.320;2022-08-01T14:43:53;5.78;;;1.60;;
21564;SDS011;10943;48.738;9.320;2022-08-01T14:46:21;3.97;;;1.80;;
21564;SDS011;10943;48.738;9.320;2022-08-01T14:48:49;4.43;;;1.95;;
21564;SDS011;10943;48.738;9.320;2022-08-01T14:51:19;3.95;;;1.67;;
21564;SDS011;10943;48.738;9.320;2022-08-01T14:53:49;4.53;;;1.90;;
21564;SDS011;10943;48.738;9.320;2022-08-01T14:56:20;3.22;;;1.60;;
21564;SDS011;10943;48.738;9.320;2022-08-01T14:58:48;4.85;;;1.58;;
21564;SDS011;10943;48.738;9.320;2022-08-01T15:01:16;5.15;;;1.50;;
21564;SDS011;10943;48.738;9.320;2022-08-01T15:03:44;5.28;;;1.77;;
21564;SDS011;10943;48.738;9.320;2022-08-01T15:06:13;4.25;;;1.80;;
21564;SDS011;10943;48.738;9.320;2022-08-01T15:08:40;3.85;;;1.50;;
21564;SDS011;10943;48.738;9.320;2022-08-01T15:11:07;3.30;;;1.30;;
21564;SDS011;10943;48.738;9.320;2022-08-01T15:13:35;4.75;;;1.40;;
21564;SDS011;10943;48.738;9.320;2022-08-01T15:16:08;5.03;;;1.52;;
21564;SDS011;10943;48.738;9.320;2022-08-01T15:18:37;4.05;;;1.85;;
21564;SDS011;10943;48.738;9.320;2022-08-01T15:21:06;5.53;;;1.90;;
21564;SDS011;10943;48.738;9.320;2022-08-01T15:23:39;4.70;;;1.60;;
21564;SDS011;10943;48.738;9.320;2022-08-01T15:26:07;3.70;;;1.45;;
21564;SDS011;10943;48.738;9.320;2022-08-01T15:28:46;4.95;;;1.60;;
21564;SDS011;10943;48.738;9.320;2022-08-01T15:31:14;4.22;;;1.50;;
21564;SDS011;10943;48.738;9.320;2022-08-01T15:33:42;3.65;;;1.60;;
21564;SDS011;10943;48.738;9.320;2022-08-01T15:36:09;4.30;;;1.48;;
21564;SDS011;10943;48.738;9.320;2022-08-01T15:38:40;3.70;;;1.65;;
21564;SDS011;10943;48.738;9.320;2022-08-01T15:41:08;4.25;;;1.60;;
21564;SDS011;10943;48.738;9.320;2022-08-01T15:43:36;3.28;;;1.70;;
21564;SDS011;10943;48.738;9.320;2022-08-01T15:46:10;4.22;;;1.67;;
21564;SDS011;10943;48.738;9.320;2022-08-01T15:48:43;5.93;;;1.48;;
21564;SDS011;10943;48.738;9.320;2022-08-01T15:51:11;3.67;;;1.75;;
21564;SDS011;10943;48.738;9.320;2022-08-01T15:53:39;3.88;;;1.65;;
21564;SDS011;10943;48.738;9.320;2022-08-01T15:56:08;4.70;;;1.50;;
21564;SDS011;10943;48.738;9.320;2022-08-01T15:58:36;3.50;;;1.50;;
21564;SDS011;10943;48.738;9.320;2022-08-01T16:01:04;3.67;;;1.50;;
21564;SDS011;10943;48.738;9.320;2022-08-01T16:03:32;3.00;;;1.40;;
21564;SDS011;10943;48.738;9.320;2022-08-01T16:06:01;4.47;;;1.55;;
21564;SDS011;10943;48.738;9.320;2022-08-01T16:08:31;4.90;;;1.40;;
21564;SDS011;10943;48.738;9.320;2022-08-01T16:10:58;4.05;;;1.45;;
21564;SDS011;10943;48.738;9.320;2022-08-01T16:13:28;5.45;;;1.70;;
21564;SDS011;10943;48.738;9.320;2022-08-01T16:15:56;3.38;;;1.50;;
21564;SDS011;10943;48.738;9.320;2022-08-01T16:18:25;3.10;;;1.52;;
21564;SDS011;10943;48.738;9.320;2022-08-01T16:20:53;5.15;;;1.60;;
21564;SDS011;10943;48.738;9.320;2022-08-01T16:23:20;3.67;;;1.50;;
21564;SDS011;10943;48.738;9.320;2022-08-01T16:25:48;3.45;;;1.58;;
21564;SDS011;10943;48.738;9.320;2022-08-01T16:28:19;3.20;;;1.50;;
21564;SDS011;10943;48.738;9.320;2022-08-01T16:30:50;5.50;;;1.40;;
21564;SDS011;10943;48.738;9.320;2022-08-01T16:33:37;4.35;;;1.60;;
21564;SDS011;10943;48.738;9.320;2022-08-01T16:36:21;3.47;;;1.40;;
21564;SDS011;10943;48.738;9.320;2022-08-01T16:38:56;5.43;;;1.33;;
21564;SDS011;10943;48.738;9.320;2022-08-01T16:41:24;3.28;;;1.83;;
21564;SDS011;10943;48.738;9.320;2022-08-01T16:43:54;3.83;;;1.50;;
21564;SDS011;10943;48.738;9.320;2022-08-01T16:46:22;5.50;;;1.40;;
21564;SDS011;10943;48.738;9.320;2022-08-01T16:48:54;4.45;;;1.60;;
21564;SDS011;10943;48.738;9.320;2022-08-01T16:51:22;7.35;;;4.03;;
21564;SDS011;10943;48.738;9.320;2022-08-01T16:53:51;5.65;;;1.70;;
21564;SDS011;10943;48.738;9.320;2022-08-01T16:56:18;5.97;;;1.70;;
21564;SDS011;10943;48.738;9.320;2022-08-01T16:58:47;3.30;;;1.38;;
21564;SDS011;10943;48.738;9.320;2022-08-01T17:01:17;4.40;;;1.27;;
21564;SDS011;10943;48.738;9.320;2022-08-01T17:04:08;6.70;;;1.85;;
21564;SDS011;10943;48.738;9.320;2022-08-01T17:06:35;4.35;;;2.10;;
21564;SDS011;10943;48.738;9.320;2022-08-01T17:09:03;4.55;;;2.00;;
21564;SDS011;10943;48.738;9.320;2022-08-01T17:11:31;4.18;;;1.88;;
21564;SDS011;10943;48.738;9.320;2022-08-01T17:13:59;7.03;;;1.98;;
21564;SDS011;10943;48.738;9.320;2022-08-01T17:16:29;4.70;;;1.60;;
21564;SDS011;10943;48.738;9.320;2022-08-01T17:18:57;3.90;;;1.95;;
21564;SDS011;10943;48.738;9.320;2022-08-01T17:21:25;5.22;;;2.10;;
21564;SDS011;10943;48.738;9.320;2022-08-01T17:23:54;4.38;;;2.05;;